Time;durP1;ratioP1;P1;durP2;ratioP2;P2;SDS_P1;SDS_P2;PMS_P1;PMS_P2;Temp;Humidity;BMP_temperature;BMP_pressure;BME280_temperature;BME280_humidity;BME280_pressure;Samples;Min_cycle;Max_cycle;Signal;HPM_P1;HPM_P2
2022/10/29 00:02:23;;;;;;;78.50;22.20;;;17.00;99.90;;;;;;5042171;28;20193;-86
2022/10/29 00:04:49;;;;;;;87.17;23.00;;;17.00;99.90;;;;;;5041635;28;20438;-85
2022/10/29 00:07:15;;;;;;;81.97;20.50;;;17.10;99.90;;;;;;5041920;28;20158;-85
2022/10/29 00:09:40;;;;;;;82.60;19.70;;;17.10;99.90;;;;;;5042363;28;20185;-86
2022/10/29 00:12:06;;;;;;;89.53;22.17;;;17.00;99.90;;;;;;5043420;28;20219;-85
2022/10/29 00:14:32;;;;;;;76.10;20.00;;;16.90;99.90;;;;;;5041187;28;20173;-85
2022/10/29 00:16:58;;;;;;;78.10;23.97;;;16.90;99.90;;;;;;5043250;28;20408;-85
2022/10/29 00:19:24;;;;;;;82.03;24.40;;;16.90;99.90;;;;;;5041671;28;20208;-86
2022/10/29 00:21:50;;;;;;;87.70;20.93;;;16.90;99.90;;;;;;5042011;28;20200;-85
2022/10/29 00:24:16;;;;;;;80.30;22.40;;;17.00;99.90;;;;;;5042587;28;20412;-86
2022/10/29 00:26:41;;;;;;;76.17;19.07;;;17.00;99.90;;;;;;5042472;28;20408;-85
2022/10/29 00:29:07;;;;;;;84.90;20.73;;;17.00;99.90;;;;;;5040620;28;20951;-86
2022/10/29 00:31:33;;;;;;;85.17;22.00;;;17.00;99.90;;;;;;5040260;28;20172;-86
2022/10/29 00:33:58;;;;;;;83.90;22.43;;;17.00;99.90;;;;;;5042360;28;20172;-85
2022/10/29 00:36:27;;;;;;;85.43;21.97;;;17.00;99.90;;;;;;5043204;28;20244;-86
2022/10/29 00:38:53;;;;;;;85.27;21.60;;;17.00;99.90;;;;;;5040884;28;20185;-85
2022/10/29 00:41:25;;;;;;;76.77;20.40;;;17.10;99.90;;;;;;5042758;28;20471;-86
2022/10/29 00:44:11;;;;;;;77.67;19.67;;;17.10;99.90;;;;;;5042465;28;20389;-85
2022/10/29 00:46:39;;;;;;;82.30;22.17;;;17.00;99.90;;;;;;5040370;28;20908;-85
2022/10/29 00:49:05;;;;;;;79.43;19.40;;;17.00;99.90;;;;;;5041741;28;20433;-85
2022/10/29 00:51:31;;;;;;;77.67;19.30;;;17.00;99.90;;;;;;5042382;28;20466;-86
2022/10/29 00:54:03;;;;;;;88.50;22.83;;;16.90;99.90;;;;;;5042412;28;20260;-85
2022/10/29 00:56:32;;;;;;;79.70;21.90;;;16.90;99.90;;;;;;5040441;28;20397;-85
2022/10/29 00:58:58;;;;;;;78.77;22.80;;;17.00;99.90;;;;;;5040246;28;20428;-85
2022/10/29 01:01:24;;;;;;;84.87;20.57;;;17.00;99.90;;;;;;5040194;28;20454;-85
2022/10/29 01:03:53;;;;;;;82.10;22.27;;;17.00;99.90;;;;;;5039661;28;20466;-85
2022/10/29 01:06:19;;;;;;;84.63;21.77;;;17.00;99.90;;;;;;5041794;28;20162;-86
2022/10/29 01:08:44;;;;;;;76.60;20.30;;;16.90;99.90;;;;;;5040783;28;20454;-85
2022/10/29 01:11:16;;;;;;;85.93;21.00;;;16.90;99.90;;;;;;5042736;28;20799;-86
2022/10/29 01:13:59;;;;;;;78.27;22.77;;;16.90;99.90;;;;;;5041885;28;20150;-85
2022/10/29 01:16:49;;;;;;;79.50;19.90;;;16.80;99.90;;;;;;5041485;28;20400;-85
2022/10/29 01:19:14;;;;;;;86.87;24.17;;;16.80;99.90;;;;;;5042049;28;20424;-86
2022/10/29 01:21:54;;;;;;;78.23;21.33;;;16.80;99.90;;;;;;5041474;28;20543;-85
2022/10/29 01:24:44;;;;;;;80.60;23.93;;;16.60;99.90;;;;;;5042046;28;20183;-86
2022/10/29 01:27:29;;;;;;;77.30;21.67;;;16.60;99.90;;;;;;5041174;28;20438;-86
2022/10/29 01:30:31;;;;;;;80.43;21.17;;;16.60;99.90;;;;;;5044475;28;20451;-86
2022/10/29 01:33:13;;;;;;;91.00;21.83;;;16.70;99.90;;;;;;5044644;28;20456;-85
2022/10/29 01:36:01;;;;;;;78.50;20.03;;;16.60;99.90;;;;;;5044607;28;20787;-86
2022/10/29 01:38:33;;;;;;;77.40;18.00;;;16.70;99.90;;;;;;5045874;28;20384;-85
2022/10/29 01:41:22;;;;;;;84.60;22.00;;;16.70;99.90;;;;;;5046504;28;20410;-86
2022/10/29 01:44:04;;;;;;;93.83;22.63;;;16.70;99.90;;;;;;5045948;28;20475;-86
2022/10/29 01:46:37;;;;;;;84.23;19.40;;;16.70;99.90;;;;;;5045939;28;20412;-86
2022/10/29 01:49:07;;;;;;;76.73;18.73;;;16.60;99.90;;;;;;5045951;28;20509;-86
2022/10/29 01:51:35;;;;;;;80.20;17.20;;;16.40;99.90;;;;;;5044720;28;20391;-85
2022/10/29 01:54:07;;;;;;;76.73;17.13;;;16.40;99.90;;;;;;5045849;28;20402;-86
2022/10/29 01:56:32;;;;;;;76.80;16.60;;;16.40;99.90;;;;;;5046814;28;20398;-86
2022/10/29 01:59:00;;;;;;;75.13;16.43;;;16.40;99.90;;;;;;5045201;28;20845;-86
2022/10/29 02:01:31;;;;;;;86.50;16.97;;;16.40;99.90;;;;;;5046185;28;20199;-86
2022/10/29 02:04:23;;;;;;;80.97;21.17;;;16.30;99.90;;;;;;5045508;28;20445;-86
2022/10/29 02:07:11;;;;;;;83.30;15.70;;;16.30;99.90;;;;;;5021700;28;20415;-86
2022/10/29 02:09:39;;;;;;;78.67;19.27;;;16.30;99.90;;;;;;5045591;28;20423;-85
2022/10/29 02:12:14;;;;;;;82.60;20.27;;;16.30;99.90;;;;;;5044385;28;20419;-85
2022/10/29 02:14:46;;;;;;;90.63;19.70;;;16.30;99.90;;;;;;5045411;28;20392;-86
2022/10/29 02:17:12;;;;;;;80.70;20.07;;;16.30;99.90;;;;;;5045449;28;20407;-85
2022/10/29 02:19:38;;;;;;;83.90;26.07;;;16.20;99.90;;;;;;5045517;28;20853;-86
2022/10/29 02:22:03;;;;;;;84.63;26.60;;;16.20;99.90;;;;;;5045253;28;20230;-86
2022/10/29 02:24:29;;;;;;;85.03;23.40;;;16.20;99.90;;;;;;5044345;28;20204;-85
2022/10/29 02:26:55;;;;;;;79.27;21.27;;;16.20;99.90;;;;;;5044462;28;20153;-86
2022/10/29 02:29:20;;;;;;;80.37;18.00;;;16.30;99.90;;;;;;5043809;28;20274;-86
2022/10/29 02:31:46;;;;;;;82.87;17.87;;;16.20;99.90;;;;;;5043450;28;20175;-86
2022/10/29 02:34:12;;;;;;;79.80;17.10;;;16.30;99.90;;;;;;5043421;28;20249;-86
2022/10/29 02:36:37;;;;;;;74.63;16.37;;;16.30;99.90;;;;;;5044473;28;20173;-85
2022/10/29 02:39:03;;;;;;;81.57;18.50;;;16.30;99.90;;;;;;5044960;28;20182;-86
2022/10/29 02:41:29;;;;;;;78.33;18.27;;;16.40;99.90;;;;;;5043465;28;20202;-86
2022/10/29 02:43:54;;;;;;;84.80;18.23;;;16.40;99.90;;;;;;5042681;28;20258;-86
2022/10/29 02:46:22;;;;;;;79.47;18.03;;;16.40;99.90;;;;;;5042899;28;20183;-86
2022/10/29 02:48:49;;;;;;;86.70;18.93;;;16.40;99.90;;;;;;5043954;28;20239;-85
2022/10/29 02:51:15;;;;;;;79.80;18.43;;;16.40;99.90;;;;;;5044791;28;20905;-86
2022/10/29 02:53:41;;;;;;;83.57;21.50;;;16.40;99.90;;;;;;5043431;28;20408;-86
2022/10/29 02:56:08;;;;;;;79.03;20.73;;;16.30;99.90;;;;;;5043145;28;20400;-86
2022/10/29 02:58:34;;;;;;;82.77;22.07;;;16.20;99.90;;;;;;5042157;28;20461;-86
2022/10/29 03:01:00;;;;;;;80.93;21.33;;;16.10;99.90;;;;;;5043408;28;20419;-85
2022/10/29 03:03:26;;;;;;;76.60;19.30;;;16.10;99.90;;;;;;5044851;28;20460;-86
2022/10/29 03:05:51;;;;;;;79.20;18.77;;;16.00;99.90;;;;;;5044451;28;20498;-85
2022/10/29 03:08:17;;;;;;;77.33;21.83;;;16.00;99.90;;;;;;5043394;28;20174;-86
2022/10/29 03:10:43;;;;;;;78.17;19.27;;;16.00;99.90;;;;;;5044225;28;20175;-85
2022/10/29 03:13:09;;;;;;;85.93;20.13;;;16.00;99.90;;;;;;5043376;28;20413;-86
2022/10/29 03:15:36;;;;;;;81.33;21.83;;;16.10;99.90;;;;;;5043900;28;20414;-86
2022/10/29 03:18:02;;;;;;;79.30;20.00;;;16.10;99.90;;;;;;5044492;28;20418;-86
2022/10/29 03:20:28;;;;;;;81.10;18.13;;;16.10;99.90;;;;;;5043900;28;20477;-85
2022/10/29 03:22:54;;;;;;;76.60;21.17;;;16.10;99.90;;;;;;5044801;28;20453;-85
2022/10/29 03:25:19;;;;;;;85.20;19.20;;;16.10;99.90;;;;;;5043674;28;20181;-85
2022/10/29 03:27:45;;;;;;;79.10;20.60;;;16.10;99.90;;;;;;5043179;28;20184;-85
2022/10/29 03:30:16;;;;;;;78.30;21.37;;;16.10;99.90;;;;;;5043412;28;20204;-85
2022/10/29 03:32:43;;;;;;;82.07;21.87;;;16.10;99.90;;;;;;5044037;28;20406;-85
2022/10/29 03:35:10;;;;;;;83.77;21.70;;;16.00;99.90;;;;;;5042662;28;20466;-85
2022/10/29 03:37:36;;;;;;;80.73;21.50;;;16.00;99.90;;;;;;5043729;28;20535;-85
2022/10/29 03:40:03;;;;;;;83.37;19.50;;;16.00;99.90;;;;;;5042239;28;20489;-85
2022/10/29 03:42:32;;;;;;;75.60;19.60;;;16.00;99.90;;;;;;5042968;28;20493;-85
2022/10/29 03:45:02;;;;;;;78.73;19.93;;;16.00;99.90;;;;;;5042142;28;20429;-85
2022/10/29 03:47:27;;;;;;;80.20;18.50;;;16.00;99.90;;;;;;5042575;28;20395;-85
2022/10/29 03:49:54;;;;;;;83.33;19.77;;;16.00;99.90;;;;;;5041916;28;20570;-85
2022/10/29 03:52:20;;;;;;;79.90;22.20;;;15.90;99.90;;;;;;5041106;28;20195;-85
2022/10/29 03:54:46;;;;;;;75.90;18.10;;;15.90;99.90;;;;;;5042199;28;20552;-85
2022/10/29 03:57:12;;;;;;;79.30;19.30;;;15.90;99.90;;;;;;5042161;28;20442;-85
2022/10/29 03:59:37;;;;;;;76.87;19.73;;;15.90;99.90;;;;;;5042481;28;20218;-85
2022/10/29 04:02:03;;;;;;;78.27;21.77;;;15.90;99.90;;;;;;5042626;28;20468;-85
2022/10/29 04:04:29;;;;;;;76.67;18.33;;;15.80;99.90;;;;;;5042979;28;20185;-86
2022/10/29 04:06:54;;;;;;;75.27;19.23;;;15.60;99.90;;;;;;5041324;28;20190;-85
2022/10/29 04:09:20;;;;;;;84.47;20.63;;;15.70;99.90;;;;;;5043713;28;20179;-85
2022/10/29 04:11:46;;;;;;;92.73;24.80;;;15.50;99.90;;;;;;5041645;28;20174;-85
2022/10/29 04:14:11;;;;;;;84.83;27.17;;;15.40;99.90;;;;;;5042107;28;20190;-85
2022/10/29 04:16:37;;;;;;;87.40;28.13;;;15.40;99.90;;;;;;5042959;28;20174;-85
2022/10/29 04:19:03;;;;;;;78.77;25.17;;;15.40;99.90;;;;;;5042191;28;20238;-85
2022/10/29 04:21:28;;;;;;;82.57;26.23;;;15.40;99.90;;;;;;5042209;28;20190;-85
2022/10/29 04:23:54;;;;;;;81.57;24.50;;;15.40;99.90;;;;;;5042815;28;20189;-85
2022/10/29 04:26:20;;;;;;;83.30;25.60;;;15.40;99.90;;;;;;5042180;28;20178;-85
2022/10/29 04:28:49;;;;;;;86.47;23.00;;;15.40;99.90;;;;;;5042358;28;20218;-85
2022/10/29 04:31:15;;;;;;;79.67;23.47;;;15.50;99.90;;;;;;5041573;28;20192;-85
2022/10/29 04:33:41;;;;;;;76.57;22.83;;;15.50;99.90;;;;;;5042385;28;20405;-85
2022/10/29 04:36:07;;;;;;;83.70;25.00;;;15.50;99.90;;;;;;5042900;28;20416;-85
2022/10/29 04:38:33;;;;;;;86.37;28.17;;;15.40;99.90;;;;;;5043133;28;20680;-85
2022/10/29 04:40:59;;;;;;;94.60;30.73;;;15.30;99.90;;;;;;5043828;28;20425;-85
2022/10/29 04:43:26;;;;;;;83.33;25.10;;;15.40;99.90;;;;;;5043209;28;20214;-86
2022/10/29 04:45:53;;;;;;;81.77;26.57;;;15.40;99.90;;;;;;5042785;28;20429;-85
2022/10/29 04:48:20;;;;;;;80.37;23.20;;;15.50;99.90;;;;;;5044068;28;20816;-86
2022/10/29 04:50:46;;;;;;;81.47;21.90;;;15.60;99.90;;;;;;5044454;28;20418;-86
2022/10/29 04:53:12;;;;;;;76.30;21.43;;;15.60;99.90;;;;;;5044924;28;20448;-86
2022/10/29 04:55:38;;;;;;;85.00;23.20;;;15.50;99.90;;;;;;5044631;28;20421;-86
2022/10/29 04:58:05;;;;;;;78.87;21.87;;;15.50;99.90;;;;;;5044370;28;20418;-85
2022/10/29 05:00:31;;;;;;;85.47;21.10;;;15.50;99.90;;;;;;5044283;28;20510;-86
2022/10/29 05:02:57;;;;;;;78.80;18.70;;;15.50;99.90;;;;;;5044429;28;20458;-85
2022/10/29 05:05:23;;;;;;;83.30;21.67;;;15.60;99.90;;;;;;5046974;28;20499;-86
2022/10/29 05:07:48;;;;;;;84.50;19.70;;;15.60;99.90;;;;;;5048159;28;20247;-85
2022/10/29 05:10:14;;;;;;;79.40;22.10;;;15.60;99.90;;;;;;5048337;28;20267;-85
2022/10/29 05:12:40;;;;;;;87.03;24.40;;;15.60;99.90;;;;;;5047338;28;20198;-86
2022/10/29 05:15:06;;;;;;;78.60;22.03;;;15.60;99.90;;;;;;5048374;28;20406;-85
2022/10/29 05:17:37;;;;;;;81.80;21.97;;;15.60;99.90;;;;;;5047907;28;20333;-86
2022/10/29 05:20:03;;;;;;;90.13;22.73;;;15.50;99.90;;;;;;5047281;28;20430;-86
2022/10/29 05:22:29;;;;;;;76.87;18.67;;;15.50;99.90;;;;;;5047291;28;20453;-86
2022/10/29 05:24:55;;;;;;;89.43;23.07;;;15.50;99.90;;;;;;5114857;23;21496;-84
2022/10/29 05:27:20;;;;;;;78.67;19.50;;;15.60;99.90;;;;;;5038971;28;20559;-81
2022/10/29 05:29:46;;;;;;;79.90;20.50;;;15.60;99.90;;;;;;5054118;28;20625;-81
2022/10/29 05:32:11;;;;;;;81.20;18.57;;;15.60;99.90;;;;;;5038787;28;20238;-81
2022/10/29 05:34:37;;;;;;;76.23;18.23;;;15.70;99.90;;;;;;5038421;28;20175;-81
2022/10/29 05:37:03;;;;;;;78.63;17.27;;;15.70;99.90;;;;;;5037382;28;20658;-81
2022/10/29 05:39:28;;;;;;;77.20;16.77;;;15.80;99.90;;;;;;5038310;28;20591;-81
2022/10/29 05:41:54;;;;;;;82.80;14.97;;;15.80;99.90;;;;;;5038835;28;20199;-81
2022/10/29 05:44:20;;;;;;;73.07;12.57;;;15.80;99.90;;;;;;5038145;28;20163;-81
2022/10/29 05:46:48;;;;;;;82.00;11.93;;;15.80;99.90;;;;;;5038701;28;20199;-81
2022/10/29 05:49:14;;;;;;;79.27;14.90;;;15.80;99.90;;;;;;5038398;28;20189;-81
2022/10/29 05:51:39;;;;;;;80.80;13.33;;;15.80;99.90;;;;;;5038230;28;20406;-81
2022/10/29 05:54:05;;;;;;;80.30;12.80;;;15.70;99.90;;;;;;5037053;28;20179;-81
2022/10/29 05:56:31;;;;;;;77.87;15.47;;;15.70;99.90;;;;;;5038195;28;20182;-82
2022/10/29 05:58:56;;;;;;;79.90;13.87;;;15.80;99.90;;;;;;5038194;28;20193;-81
2022/10/29 06:01:22;;;;;;;74.37;13.67;;;15.80;99.90;;;;;;5038167;28;20162;-81
2022/10/29 06:03:48;;;;;;;78.87;12.87;;;15.80;99.90;;;;;;5037919;28;20640;-81
2022/10/29 06:06:13;;;;;;;74.10;12.67;;;15.80;99.90;;;;;;5037422;28;20234;-81
2022/10/29 06:08:39;;;;;;;76.27;13.60;;;15.80;99.90;;;;;;5037531;28;20183;-82
2022/10/29 06:11:05;;;;;;;78.57;15.27;;;15.70;99.90;;;;;;5038173;28;20155;-81
2022/10/29 06:13:30;;;;;;;80.00;15.57;;;15.70;99.90;;;;;;5037762;28;20171;-81
2022/10/29 06:15:58;;;;;;;80.30;16.40;;;15.60;99.90;;;;;;5036643;28;20339;-81
2022/10/29 06:18:24;;;;;;;86.30;21.97;;;15.60;99.90;;;;;;5038604;28;20165;-81
2022/10/29 06:20:50;;;;;;;79.50;17.57;;;15.50;99.90;;;;;;5038617;28;20405;-81
2022/10/29 06:23:16;;;;;;;80.70;20.10;;;15.50;99.90;;;;;;5038769;28;20453;-81
2022/10/29 06:25:41;;;;;;;82.43;18.80;;;15.50;99.90;;;;;;5038467;28;20185;-82
2022/10/29 06:28:10;;;;;;;83.40;25.20;;;15.40;99.90;;;;;;5038570;28;20167;-82
2022/10/29 06:30:36;;;;;;;85.13;22.03;;;15.40;99.90;;;;;;5037445;28;20530;-82
2022/10/29 06:33:04;;;;;;;78.10;25.17;;;15.40;99.90;;;;;;5038307;28;20401;-82
2022/10/29 06:35:30;;;;;;;87.87;28.43;;;15.40;99.90;;;;;;5038969;28;20190;-81
2022/10/29 06:37:56;;;;;;;86.10;24.50;;;15.40;99.90;;;;;;5038906;28;20428;-82
2022/10/29 06:40:22;;;;;;;88.77;25.70;;;15.40;99.90;;;;;;5038748;28;20451;-82
2022/10/29 06:42:48;;;;;;;86.10;21.33;;;15.40;99.90;;;;;;5039211;28;20445;-82
2022/10/29 06:45:14;;;;;;;83.17;22.17;;;15.30;99.90;;;;;;5039020;28;20401;-82
2022/10/29 06:47:40;;;;;;;77.03;16.83;;;15.40;99.90;;;;;;5038307;28;20815;-81
2022/10/29 06:50:07;;;;;;;76.50;19.80;;;15.40;99.90;;;;;;5038909;28;20455;-81
2022/10/29 06:52:33;;;;;;;76.27;19.27;;;15.40;99.90;;;;;;5038433;28;20408;-84
2022/10/29 06:55:01;;;;;;;76.47;17.90;;;15.40;99.90;;;;;;5037341;28;20420;-84
2022/10/29 06:57:27;;;;;;;76.67;17.57;;;15.40;99.90;;;;;;5038558;28;21000;-84
2022/10/29 06:59:53;;;;;;;81.47;16.50;;;15.50;99.90;;;;;;5037963;28;20425;-84
2022/10/29 07:02:20;;;;;;;82.20;20.30;;;15.50;99.90;;;;;;5054612;28;20444;-83
2022/10/29 07:04:46;;;;;;;75.27;17.10;;;15.50;99.90;;;;;;5036848;28;20173;-81
2022/10/29 07:07:11;;;;;;;74.20;14.70;;;15.50;99.90;;;;;;5037396;28;20768;-82
2022/10/29 07:09:37;;;;;;;81.27;16.57;;;15.50;99.90;;;;;;5037736;28;20190;-82
2022/10/29 07:12:03;;;;;;;78.10;16.40;;;15.50;99.90;;;;;;5037944;28;20217;-81
2022/10/29 07:14:28;;;;;;;75.83;16.13;;;15.50;99.90;;;;;;5038624;28;20165;-82
2022/10/29 07:16:54;;;;;;;78.93;17.70;;;15.50;99.90;;;;;;5036921;28;20175;-82
2022/10/29 07:19:20;;;;;;;78.37;18.60;;;15.40;99.90;;;;;;5037599;28;20188;-81
2022/10/29 07:21:45;;;;;;;87.97;17.67;;;15.40;99.90;;;;;;5037508;28;20226;-81
2022/10/29 07:24:11;;;;;;;82.73;19.90;;;15.50;99.90;;;;;;5037829;28;20163;-82
2022/10/29 07:26:37;;;;;;;82.30;18.33;;;15.50;99.90;;;;;;5037776;28;20669;-82
2022/10/29 07:29:03;;;;;;;81.40;18.23;;;15.70;99.90;;;;;;5036718;28;20212;-82
2022/10/29 07:31:30;;;;;;;80.93;16.90;;;15.70;99.90;;;;;;5036921;28;20409;-82
2022/10/29 07:33:56;;;;;;;83.00;20.10;;;15.80;99.90;;;;;;5038399;28;20411;-82
2022/10/29 07:36:22;;;;;;;78.80;18.23;;;15.70;99.90;;;;;;5038163;28;20923;-82
2022/10/29 07:38:48;;;;;;;81.33;17.67;;;15.70;99.90;;;;;;5037674;28;20443;-82
2022/10/29 07:41:14;;;;;;;87.53;17.57;;;15.80;99.90;;;;;;5037326;28;20913;-81
2022/10/29 07:43:40;;;;;;;86.87;19.90;;;15.80;99.90;;;;;;5037433;28;20166;-81
2022/10/29 07:46:05;;;;;;;76.53;17.47;;;15.90;99.90;;;;;;5037490;28;20163;-81
2022/10/29 07:48:31;;;;;;;84.07;18.90;;;15.90;99.90;;;;;;5037093;28;20427;-81
2022/10/29 07:50:58;;;;;;;85.07;19.90;;;15.90;99.90;;;;;;5037000;28;20429;-82
2022/10/29 07:53:24;;;;;;;78.30;15.43;;;15.90;99.90;;;;;;5037674;28;20529;-82
2022/10/29 07:55:59;;;;;;;88.57;16.67;;;16.00;99.90;;;;;;5037481;28;20491;-82
2022/10/29 07:58:25;;;;;;;80.30;19.63;;;15.90;99.90;;;;;;5037690;28;20241;-82
2022/10/29 08:00:51;;;;;;;82.67;18.13;;;15.90;99.90;;;;;;5037516;28;20404;-81
2022/10/29 08:03:17;;;;;;;79.00;18.50;;;15.90;99.90;;;;;;5037226;28;20454;-81
2022/10/29 08:05:42;;;;;;;85.30;17.20;;;16.00;99.90;;;;;;5037427;28;20452;-81
2022/10/29 08:08:11;;;;;;;88.30;19.33;;;16.00;99.90;;;;;;5036879;28;20165;-81
2022/10/29 08:10:36;;;;;;;80.77;18.47;;;16.00;99.90;;;;;;5036575;28;20219;-81
2022/10/29 08:13:04;;;;;;;87.17;18.63;;;16.10;99.90;;;;;;5036930;28;20437;-81
2022/10/29 08:15:31;;;;;;;83.43;18.57;;;16.10;99.90;;;;;;5035233;28;20163;-81
2022/10/29 08:18:00;;;;;;;79.77;18.20;;;16.10;99.90;;;;;;5035973;28;20516;-81
2022/10/29 08:20:28;;;;;;;78.47;17.40;;;16.20;99.90;;;;;;5037411;28;20448;-81
2022/10/29 08:22:53;;;;;;;85.80;18.63;;;16.20;99.90;;;;;;5036545;28;20785;-81
2022/10/29 08:25:19;;;;;;;81.67;20.50;;;16.20;99.90;;;;;;5036772;28;20459;-81
2022/10/29 08:27:56;;;;;;;83.00;21.67;;;16.20;99.90;;;;;;5037173;28;20159;-81
2022/10/29 08:30:21;;;;;;;79.17;17.47;;;16.20;99.90;;;;;;5036986;28;20444;-81
2022/10/29 08:32:47;;;;;;;87.53;18.60;;;16.30;99.90;;;;;;5036894;28;20929;-81
2022/10/29 08:35:13;;;;;;;87.90;18.60;;;16.30;99.90;;;;;;5035884;28;20175;-81
2022/10/29 08:37:43;;;;;;;84.93;19.97;;;16.40;99.90;;;;;;5036847;28;20159;-81
2022/10/29 08:40:27;;;;;;;79.77;18.57;;;16.40;99.90;;;;;;5036481;28;20424;-81
2022/10/29 08:43:20;;;;;;;75.20;17.43;;;16.50;99.90;;;;;;5037118;28;20956;-81
2022/10/29 08:45:49;;;;;;;77.37;18.40;;;16.60;99.90;;;;;;5037424;28;20403;-81
2022/10/29 08:48:28;;;;;;;78.17;16.30;;;16.60;99.90;;;;;;5036881;28;20488;-81
2022/10/29 08:51:05;;;;;;;80.57;16.60;;;16.60;99.90;;;;;;5036746;28;20387;-81
2022/10/29 08:53:38;;;;;;;74.67;16.13;;;16.70;99.90;;;;;;5036770;28;20889;-81
2022/10/29 08:56:11;;;;;;;76.20;17.67;;;16.70;99.90;;;;;;5036654;28;20388;-81
2022/10/29 08:58:46;;;;;;;86.60;18.63;;;16.70;99.90;;;;;;5037306;28;20421;-81
2022/10/29 09:01:12;;;;;;;87.23;17.70;;;16.80;99.90;;;;;;5036418;28;20390;-81
2022/10/29 09:03:38;;;;;;;82.30;19.60;;;16.80;99.90;;;;;;5036673;28;20447;-81
2022/10/29 09:06:27;;;;;;;87.87;16.10;;;16.80;99.90;;;;;;5036112;28;20530;-81
2022/10/29 09:09:30;;;;;;;101.17;20.60;;;16.90;99.90;;;;;;5036176;28;20173;-81
2022/10/29 09:12:20;;;;;;;78.83;14.30;;;17.00;99.90;;;;;;5036679;28;20436;-81
2022/10/29 09:15:33;;;;;;;84.57;15.20;;;17.10;99.90;;;;;;5036444;28;20387;-83
2022/10/29 09:18:50;;;;;;;84.77;12.77;;;17.20;99.90;;;;;;4990882;28;20873;-81
2022/10/29 09:21:34;;;;;;;77.20;9.93;;;17.40;99.90;;;;;;4992161;28;20419;-81
2022/10/29 09:24:28;;;;;;;78.37;11.30;;;17.60;99.90;;;;;;5036886;28;20431;-81
2022/10/29 09:26:59;;;;;;;79.43;10.90;;;17.60;99.90;;;;;;5033155;28;20845;-81
2022/10/29 09:29:29;;;;;;;77.20;12.40;;;17.60;99.90;;;;;;5036025;28;20423;-81
2022/10/29 09:32:12;;;;;;;76.87;11.80;;;17.80;99.90;;;;;;5035972;28;20400;-81
2022/10/29 09:34:46;;;;;;;81.23;13.40;;;17.70;99.90;;;;;;5036233;28;20390;-81
2022/10/29 09:37:19;;;;;;;91.13;13.03;;;17.70;99.90;;;;;;5036542;28;20451;-81
2022/10/29 09:39:46;;;;;;;81.73;13.27;;;17.70;99.90;;;;;;5036308;28;20506;-81
2022/10/29 09:42:21;;;;;;;82.77;14.37;;;17.70;99.90;;;;;;5036049;28;20448;-81
2022/10/29 09:44:57;;;;;;;79.47;11.87;;;17.70;99.90;;;;;;5036928;28;20475;-81
2022/10/29 09:47:37;;;;;;;77.53;12.30;;;17.80;99.90;;;;;;5036309;28;20396;-81
2022/10/29 09:50:26;;;;;;;79.87;12.63;;;17.90;99.90;;;;;;5036450;28;20806;-81
2022/10/29 09:52:52;;;;;;;81.10;13.40;;;17.90;99.90;;;;;;5031021;28;20412;-81
2022/10/29 09:55:23;;;;;;;79.43;12.50;;;18.00;99.90;;;;;;5039431;28;20397;-81
2022/10/29 09:57:49;;;;;;;76.00;13.47;;;18.00;99.90;;;;;;5038148;28;20458;-81
2022/10/29 10:00:22;;;;;;;78.17;12.80;;;18.10;99.90;;;;;;5039540;28;20911;-81
2022/10/29 10:03:09;;;;;;;73.77;11.20;;;18.20;99.90;;;;;;5039403;28;20193;-81
2022/10/29 10:05:54;;;;;;;73.57;11.57;;;18.30;99.90;;;;;;5039939;28;20382;-81
2022/10/29 10:08:20;;;;;;;72.60;10.10;;;18.40;99.90;;;;;;5039370;28;20379;-81
2022/10/29 10:11:06;;;;;;;72.30;10.10;;;18.40;99.90;;;;;;5039464;28;20892;-81
2022/10/29 10:13:52;;;;;;;80.03;12.27;;;18.60;99.90;;;;;;5039744;28;20168;-81
2022/10/29 10:16:29;;;;;;;79.60;11.30;;;18.60;99.90;;;;;;5039198;28;20380;-81
2022/10/29 10:18:54;;;;;;;74.33;10.30;;;18.70;99.90;;;;;;5039635;28;20862;-81
2022/10/29 10:21:28;;;;;;;80.70;13.57;;;18.80;99.90;;;;;;5038978;28;20528;-81
2022/10/29 10:23:58;;;;;;;78.73;19.67;;;18.90;99.90;;;;;;5039718;28;20154;-81
2022/10/29 10:26:42;;;;;;;87.13;22.83;;;19.00;99.90;;;;;;5039055;28;20439;-81
2022/10/29 10:29:18;;;;;;;77.80;21.30;;;19.00;99.90;;;;;;5039159;28;20419;-81
2022/10/29 10:31:56;;;;;;;81.37;26.17;;;19.00;99.90;;;;;;5039563;28;20433;-81
2022/10/29 10:34:24;;;;;;;80.47;24.47;;;19.00;99.90;;;;;;5038990;28;20437;-81
2022/10/29 10:36:56;;;;;;;83.00;26.90;;;19.00;99.90;;;;;;5038707;28;20408;-81
2022/10/29 10:39:48;;;;;;;84.10;24.20;;;19.10;99.90;;;;;;5039177;28;20415;-81
2022/10/29 10:42:22;;;;;;;79.83;26.67;;;19.10;99.90;;;;;;5039223;28;20436;-80
2022/10/29 10:44:51;;;;;;;89.17;26.47;;;19.20;99.90;;;;;;5039204;28;20427;-80
2022/10/29 10:47:23;;;;;;;81.87;23.67;;;19.10;99.90;;;;;;5037104;28;20906;-80
2022/10/29 10:49:52;;;;;;;79.37;23.20;;;19.10;99.90;;;;;;5038428;28;20430;-80
2022/10/29 10:52:28;;;;;;;83.70;23.97;;;19.00;99.90;;;;;;5038635;28;20416;-80
2022/10/29 10:54:59;;;;;;;85.57;28.63;;;19.00;99.90;;;;;;5053634;28;20904;-80
2022/10/29 10:57:39;;;;;;;80.47;26.80;;;19.10;99.90;;;;;;5038449;28;20415;-80
2022/10/29 11:00:05;;;;;;;79.30;26.43;;;19.10;99.90;;;;;;5038531;28;20423;-80
2022/10/29 11:02:54;;;;;;;83.40;25.10;;;19.10;99.90;;;;;;5037648;28;20475;-80
2022/10/29 11:05:45;;;;;;;78.93;24.17;;;19.10;99.90;;;;;;5038106;28;20726;-80
2022/10/29 11:08:17;;;;;;;77.33;25.60;;;19.20;99.90;;;;;;5038800;28;20438;-80
2022/10/29 11:10:51;;;;;;;85.97;29.80;;;19.10;99.90;;;;;;5038004;28;20383;-80
2022/10/29 11:13:21;;;;;;;78.33;22.57;;;19.10;99.90;;;;;;5036346;28;20408;-80
2022/10/29 11:16:00;;;;;;;83.23;23.33;;;19.20;99.90;;;;;;5037874;28;20404;-80
2022/10/29 11:18:36;;;;;;;83.70;24.73;;;19.20;99.90;;;;;;5038077;28;20384;-80
2022/10/29 11:21:11;;;;;;;84.63;22.97;;;19.20;99.90;;;;;;5038124;28;20887;-80
2022/10/29 11:24:05;;;;;;;78.17;25.63;;;19.20;99.90;;;;;;5037587;28;20443;-80
2022/10/29 11:27:21;;;;;;;86.07;24.77;;;19.30;99.90;;;;;;5114421;22;20488;-84
2022/10/29 11:29:51;;;;;;;90.20;19.67;;;19.40;99.90;;;;;;5038643;28;20416;-84
2022/10/29 11:32:22;;;;;;;84.00;21.43;;;19.50;99.90;;;;;;5047184;28;20384;-85
2022/10/29 11:35:13;;;;;;;76.03;21.30;;;19.60;99.90;;;;;;5047746;28;20404;-85
2022/10/29 11:38:00;;;;;;;81.60;22.13;;;19.70;99.90;;;;;;5047465;28;20722;-85
2022/10/29 11:40:54;;;;;;;88.70;22.07;;;19.90;99.90;;;;;;5046280;28;20458;-85
2022/10/29 11:43:20;;;;;;;77.50;18.77;;;20.10;99.90;;;;;;5046981;28;20433;-84
2022/10/29 11:46:11;;;;;;;84.00;25.10;;;20.10;99.90;;;;;;5045295;28;20397;-85
2022/10/29 11:49:07;;;;;;;88.77;27.13;;;20.40;99.90;;;;;;5047780;28;20420;-85
2022/10/29 11:51:53;;;;;;;81.60;26.83;;;20.30;99.90;;;;;;5041868;28;20410;-85
2022/10/29 11:54:34;;;;;;;77.87;22.97;;;20.20;99.90;;;;;;5047149;28;20439;-84
2022/10/29 11:57:13;;;;;;;84.30;24.57;;;20.30;99.90;;;;;;5045891;28;20422;-84
2022/10/29 12:00:15;;;;;;;80.27;25.13;;;20.20;99.90;;;;;;5046595;28;20789;-85
2022/10/29 12:03:05;;;;;;;82.17;26.57;;;20.10;99.90;;;;;;5045621;28;20448;-85
2022/10/29 12:05:48;;;;;;;78.20;22.73;;;20.00;99.90;;;;;;5047525;28;20400;-85
2022/10/29 12:08:38;;;;;;;83.10;23.33;;;20.00;99.90;;;;;;5047178;28;20380;-85
2022/10/29 12:11:25;;;;;;;77.50;24.00;;;20.10;99.90;;;;;;5046199;28;20741;-85
2022/10/29 12:14:07;;;;;;;77.17;19.57;;;20.10;99.90;;;;;;5045799;28;20423;-85
2022/10/29 12:16:57;;;;;;;80.87;19.57;;;20.20;99.90;;;;;;5045124;28;20421;-84
2022/10/29 12:19:34;;;;;;;75.30;17.00;;;20.20;99.90;;;;;;5046041;28;20428;-85
2022/10/29 12:22:03;;;;;;;76.87;21.00;;;20.30;99.90;;;;;;5046518;28;20427;-84
2022/10/29 12:24:40;;;;;;;79.43;19.77;;;20.40;99.90;;;;;;5046446;28;20476;-85
2022/10/29 12:27:29;;;;;;;75.30;19.63;;;20.40;99.90;;;;;;5045441;28;20417;-85
2022/10/29 12:30:06;;;;;;;79.73;20.83;;;20.40;99.90;;;;;;5046690;28;20428;-85
2022/10/29 12:32:50;;;;;;;80.90;18.70;;;20.30;99.90;;;;;;5046127;28;20404;-85
2022/10/29 12:35:44;;;;;;;78.60;20.47;;;20.30;99.90;;;;;;5045337;28;20396;-85
2022/10/29 12:38:35;;;;;;;77.40;22.63;;;20.40;99.90;;;;;;5043942;28;20405;-85
2022/10/29 12:41:12;;;;;;;80.70;19.50;;;20.40;99.90;;;;;;5048047;28;20915;-85
2022/10/29 12:43:39;;;;;;;83.63;20.27;;;20.40;99.90;;;;;;5045825;28;20496;-84
2022/10/29 12:46:27;;;;;;;82.27;19.70;;;20.40;99.90;;;;;;5045077;28;20433;-85
2022/10/29 12:49:11;;;;;;;79.23;19.73;;;20.20;99.90;;;;;;5044870;28;20431;-85
2022/10/29 12:52:07;;;;;;;78.43;22.50;;;20.30;99.90;;;;;;5045489;28;20401;-85